createdAt,value
2023-05-14T00:00:04.942Z,13.92
2023-05-14T00:03:08.835Z,13.96
2023-05-14T00:06:11.381Z,14.03
2023-05-14T00:09:13.902Z,13.96
2023-05-14T00:12:16.225Z,14.04
2023-05-14T00:15:18.497Z,14.04
2023-05-14T00:18:20.871Z,14.03
2023-05-14T00:21:23.607Z,13.95
2023-05-14T00:24:25.880Z,13.85
2023-05-14T00:27:28.242Z,13.77
2023-05-14T00:30:30.553Z,13.80
2023-05-14T00:33:33.155Z,13.82
2023-05-14T00:36:35.638Z,13.88
2023-05-14T00:39:38.031Z,13.86
2023-05-14T00:42:41.010Z,13.88
2023-05-14T00:45:43.381Z,13.89
2023-05-14T00:48:45.701Z,13.86
2023-05-14T00:51:48.079Z,13.90
2023-05-14T00:54:50.747Z,13.81
2023-05-14T00:57:53.538Z,13.76
2023-05-14T01:00:55.922Z,13.80
2023-05-14T01:03:58.385Z,13.78
2023-05-14T01:07:16.916Z,13.83
2023-05-14T01:10:29.036Z,13.75
2023-05-14T01:13:37.630Z,13.80
2023-05-14T01:16:40.112Z,13.81
2023-05-14T01:19:45.649Z,13.84
2023-05-14T01:22:48.046Z,13.81
2023-05-14T01:25:50.358Z,13.63
2023-05-14T01:28:53.277Z,13.75
2023-05-14T01:31:55.847Z,13.72
2023-05-14T01:34:58.651Z,13.68
2023-05-14T01:38:01.909Z,13.76
2023-05-14T01:41:04.306Z,13.74
2023-05-14T01:44:06.736Z,13.79
2023-05-14T01:47:09.048Z,13.74
2023-05-14T01:50:11.395Z,13.64
2023-05-14T01:53:13.718Z,13.66
2023-05-14T01:56:16.031Z,13.69
2023-05-14T01:59:18.470Z,13.64
2023-05-14T02:02:20.828Z,13.60
2023-05-14T02:05:23.178Z,13.59
2023-05-14T02:08:25.691Z,13.64
2023-05-14T02:11:28.035Z,13.64
2023-05-14T02:14:30.368Z,13.71
2023-05-14T02:17:32.747Z,13.65
2023-05-14T02:20:35.093Z,13.68
2023-05-14T02:23:41.696Z,13.46
2023-05-14T02:26:44.530Z,13.53
2023-05-14T02:29:47.418Z,13.34
2023-05-14T02:32:49.897Z,13.56
2023-05-14T02:35:52.386Z,13.59
2023-05-14T02:38:54.678Z,13.63
2023-05-14T02:41:57.576Z,13.60
2023-05-14T02:44:59.979Z,13.47
2023-05-14T02:48:02.407Z,13.65
2023-05-14T02:51:05.891Z,13.66
2023-05-14T02:54:08.271Z,13.54
2023-05-14T02:57:10.687Z,13.52
2023-05-14T03:00:13.383Z,13.52
2023-05-14T03:03:16.159Z,13.50
2023-05-14T03:06:18.702Z,13.52
2023-05-14T03:09:21.111Z,13.45
2023-05-14T03:12:23.436Z,13.51
2023-05-14T03:15:25.893Z,13.52
2023-05-14T03:18:30.653Z,13.45
2023-05-14T03:21:33.099Z,13.49
2023-05-14T03:24:35.588Z,13.51
2023-05-14T03:27:38.332Z,13.47
2023-05-14T03:30:40.693Z,13.43
2023-05-14T03:33:43.025Z,13.39
2023-05-14T03:36:45.371Z,13.39
2023-05-14T03:39:47.732Z,13.40
2023-05-14T03:42:50.115Z,13.40
2023-05-14T03:45:52.843Z,13.38
2023-05-14T03:48:55.469Z,13.34
2023-05-14T03:51:59.469Z,13.36
2023-05-14T03:55:01.860Z,13.39
2023-05-14T03:58:07.437Z,13.38
2023-05-14T04:01:09.788Z,13.37
2023-05-14T04:04:12.327Z,13.40
2023-05-14T04:07:14.677Z,13.35
2023-05-14T04:10:17.088Z,13.36
2023-05-14T04:13:19.433Z,13.32
2023-05-14T04:16:21.775Z,13.30
2023-05-14T04:19:24.105Z,13.41
2023-05-14T04:22:26.396Z,13.49
2023-05-14T04:25:28.765Z,13.40
2023-05-14T04:28:31.128Z,13.40
2023-05-14T04:31:33.565Z,13.33
2023-05-14T04:34:35.892Z,13.31
2023-05-14T04:37:38.321Z,13.27
2023-05-14T04:40:41.548Z,13.36
2023-05-14T04:43:43.832Z,13.40
2023-05-14T04:46:46.129Z,13.34
2023-05-14T04:49:48.505Z,13.28
2023-05-14T04:52:51.119Z,13.20
2023-05-14T04:55:54.187Z,13.25
2023-05-14T04:58:56.486Z,13.34
2023-05-14T05:01:58.791Z,13.35
2023-05-14T05:05:01.312Z,13.29
2023-05-14T05:08:03.724Z,13.28
2023-05-14T05:11:06.105Z,13.28
2023-05-14T05:14:08.384Z,13.17
2023-05-14T05:17:10.805Z,13.15
2023-05-14T05:20:13.432Z,13.14
2023-05-14T05:23:15.832Z,13.11
2023-05-14T05:26:18.132Z,13.12
2023-05-14T05:29:20.436Z,13.12
2023-05-14T05:32:22.850Z,13.22
2023-05-14T05:35:25.186Z,13.09
2023-05-14T05:38:27.513Z,13.12
2023-05-14T05:41:30.353Z,13.20
2023-05-14T05:44:32.660Z,13.16
2023-05-14T05:47:35.050Z,13.06
2023-05-14T05:50:37.429Z,13.05
2023-05-14T05:53:39.754Z,13.05
2023-05-14T05:56:42.153Z,13.08
2023-05-14T05:59:44.470Z,12.94
2023-05-14T06:02:46.885Z,13.07
2023-05-14T06:05:49.296Z,13.16
2023-05-14T06:08:51.713Z,13.07
2023-05-14T06:11:54.052Z,13.19
2023-05-14T06:14:57.890Z,13.12
2023-05-14T06:18:00.365Z,13.14
2023-05-14T06:21:02.991Z,13.03
2023-05-14T06:24:05.608Z,12.70
2023-05-14T06:27:07.939Z,12.98
2023-05-14T06:30:11.392Z,12.95
2023-05-14T06:33:15.061Z,12.99
2023-05-14T06:36:17.364Z,12.93
2023-05-14T06:39:19.679Z,12.88
2023-05-14T06:42:21.958Z,12.91
2023-05-14T06:45:24.351Z,12.89
2023-05-14T06:48:27.920Z,12.95
2023-05-14T06:51:30.784Z,13.03
2023-05-14T06:54:33.101Z,13.08
2023-05-14T06:57:35.404Z,13.09
2023-05-14T07:00:37.753Z,13.12
2023-05-14T07:03:40.125Z,13.04
2023-05-14T07:06:42.444Z,12.93
2023-05-14T07:09:44.768Z,12.89
2023-05-14T07:12:47.095Z,12.94
2023-05-14T07:15:49.481Z,13.04
2023-05-14T07:18:51.903Z,12.92
2023-05-14T07:21:54.404Z,12.89
2023-05-14T07:24:56.747Z,12.96
2023-05-14T07:27:59.081Z,12.80
2023-05-14T07:31:01.495Z,12.87
2023-05-14T07:34:03.882Z,12.83
2023-05-14T07:37:06.182Z,12.81
2023-05-14T07:40:09.253Z,12.82
2023-05-14T07:43:11.588Z,12.75
2023-05-14T07:46:14.376Z,12.64
2023-05-14T07:49:16.674Z,12.68
2023-05-14T07:52:19.030Z,12.76
2023-05-14T07:55:21.443Z,12.68
2023-05-14T07:58:25.108Z,12.59
2023-05-14T08:01:27.717Z,12.58
2023-05-14T08:04:30.093Z,12.55
2023-05-14T08:07:33.718Z,12.60
2023-05-14T08:10:36.110Z,12.47
2023-05-14T08:13:38.490Z,12.61
2023-05-14T08:16:40.907Z,12.66
2023-05-14T08:19:43.345Z,12.61
2023-05-14T08:22:45.703Z,12.62
2023-05-14T08:25:47.989Z,12.68
2023-05-14T08:28:50.514Z,12.74
2023-05-14T08:31:52.844Z,12.85
2023-05-14T08:34:55.175Z,12.83
2023-05-14T08:37:57.530Z,12.79
2023-05-14T08:40:59.911Z,12.77
2023-05-14T08:44:21.380Z,12.75
2023-05-14T08:47:23.927Z,12.77
2023-05-14T08:50:26.563Z,12.75
2023-05-14T08:53:29.093Z,12.85
2023-05-14T08:56:32.614Z,12.84
2023-05-14T08:59:34.951Z,12.63
2023-05-14T09:02:37.486Z,12.67
2023-05-14T09:05:39.831Z,12.73
2023-05-14T09:08:42.317Z,12.64
2023-05-14T09:11:47.472Z,12.66
2023-05-14T09:14:50.130Z,12.55
2023-05-14T09:17:53.222Z,12.53
2023-05-14T09:20:55.892Z,12.43
2023-05-14T09:23:59.385Z,12.47
2023-05-14T09:27:01.903Z,12.47
2023-05-14T09:30:11.797Z,12.51
2023-05-14T09:33:15.053Z,12.62
2023-05-14T09:36:17.426Z,12.70
2023-05-14T09:39:19.756Z,12.74
2023-05-14T09:42:22.076Z,12.85
2023-05-14T09:45:24.420Z,12.80
2023-05-14T09:48:26.792Z,12.77
2023-05-14T09:51:31.549Z,12.72
2023-05-14T09:54:33.857Z,12.71
2023-05-14T09:57:36.757Z,12.79
2023-05-14T10:00:39.142Z,12.85
2023-05-14T10:03:41.435Z,12.89
2023-05-14T10:06:43.742Z,12.87
2023-05-14T10:09:46.040Z,12.75
2023-05-14T10:13:14.830Z,12.82
2023-05-14T10:16:21.241Z,12.83
2023-05-14T10:19:24.336Z,12.90
2023-05-14T10:22:29.544Z,13.00
2023-05-14T10:25:31.874Z,13.04
2023-05-14T10:28:34.351Z,13.00
2023-05-14T10:31:54.183Z,13.06
2023-05-14T10:34:56.730Z,13.06
2023-05-14T10:37:59.324Z,13.12
2023-05-14T10:41:03.131Z,13.14
2023-05-14T10:44:08.532Z,13.18
2023-05-14T10:47:10.843Z,13.22
2023-05-14T10:50:15.097Z,13.18
2023-05-14T10:53:17.440Z,13.26
2023-05-14T10:56:19.785Z,13.33
2023-05-14T10:59:27.463Z,13.33
2023-05-14T11:02:31.901Z,13.24
2023-05-14T11:05:37.249Z,13.31
2023-05-14T11:08:39.815Z,13.30
2023-05-14T11:11:42.136Z,13.14
2023-05-14T11:14:44.460Z,13.17
2023-05-14T11:17:47.592Z,13.19
2023-05-14T11:20:49.965Z,13.16
2023-05-14T11:23:52.307Z,13.17
2023-05-14T11:26:55.808Z,13.19
2023-05-14T11:29:58.255Z,13.32
2023-05-14T11:33:02.093Z,13.31
2023-05-14T11:36:05.065Z,13.33
2023-05-14T11:39:08.018Z,13.27
2023-05-14T11:42:12.403Z,13.21
2023-05-14T11:45:25.123Z,13.27
2023-05-14T11:48:27.434Z,13.13
2023-05-14T11:51:29.755Z,13.21
2023-05-14T11:54:32.721Z,13.15
2023-05-14T11:57:35.061Z,13.15
2023-05-14T12:00:38.935Z,13.31
2023-05-14T12:03:41.852Z,13.37
2023-05-14T12:06:44.256Z,13.37
2023-05-14T12:09:50.831Z,13.35
2023-05-14T12:12:53.184Z,13.36
2023-05-14T12:16:00.405Z,13.48
2023-05-14T12:19:02.933Z,13.43
2023-05-14T12:22:05.482Z,13.48
2023-05-14T12:25:12.527Z,13.49
2023-05-14T12:28:15.942Z,13.51
2023-05-14T12:31:18.300Z,13.45
2023-05-14T12:34:20.789Z,13.48
2023-05-14T12:37:23.131Z,13.54
2023-05-14T12:40:25.818Z,13.49
2023-05-14T12:43:31.605Z,13.50
2023-05-14T12:46:34.410Z,13.58
2023-05-14T12:49:36.824Z,13.55
2023-05-14T12:52:39.919Z,13.58
2023-05-14T12:55:42.467Z,13.62
2023-05-14T12:58:46.729Z,13.65
2023-05-14T13:01:49.065Z,13.69
2023-05-14T13:04:51.414Z,13.69
2023-05-14T13:07:53.930Z,13.64
2023-05-14T13:10:56.379Z,13.75
2023-05-14T13:13:59.342Z,13.73
2023-05-14T13:17:01.742Z,13.77
2023-05-14T13:20:04.848Z,13.72
2023-05-14T13:23:07.267Z,13.84
2023-05-14T13:26:09.931Z,13.88
2023-05-14T13:29:12.521Z,14.02
2023-05-14T13:32:14.840Z,14.00
2023-05-14T13:35:17.169Z,13.95
2023-05-14T13:38:19.447Z,13.97
2023-05-14T13:41:22.372Z,13.98
2023-05-14T13:44:24.736Z,14.14
2023-05-14T13:47:27.139Z,14.14
2023-05-14T13:50:29.492Z,14.20
2023-05-14T13:53:31.827Z,14.27
2023-05-14T13:56:34.121Z,14.17
2023-05-14T13:59:36.446Z,14.28
2023-05-14T14:02:38.785Z,14.29
2023-05-14T14:05:41.207Z,14.29
2023-05-14T14:08:43.513Z,14.30
2023-05-14T14:11:45.877Z,14.28
2023-05-14T14:14:48.142Z,14.05
2023-05-14T14:17:50.599Z,14.21
2023-05-14T14:20:52.921Z,14.21
2023-05-14T14:23:55.231Z,14.25
2023-05-14T14:26:57.595Z,14.30
2023-05-14T14:29:59.928Z,14.28
2023-05-14T14:33:02.382Z,14.30
2023-05-14T14:36:05.503Z,14.30
2023-05-14T14:39:07.839Z,14.33
2023-05-14T14:42:10.445Z,14.33
2023-05-14T14:45:12.861Z,14.29
2023-05-14T14:48:26.480Z,14.35
2023-05-14T14:51:30.333Z,14.21
2023-05-14T14:54:32.715Z,14.27
2023-05-14T14:57:35.054Z,14.20
2023-05-14T15:00:37.856Z,14.17
2023-05-14T15:03:40.812Z,14.25
2023-05-14T15:06:43.154Z,14.35
2023-05-14T15:09:45.434Z,14.30
2023-05-14T15:12:48.126Z,14.43
2023-05-14T15:15:50.725Z,14.46
2023-05-14T15:18:53.092Z,14.50
2023-05-14T15:21:55.597Z,14.52
2023-05-14T15:24:57.888Z,14.55
2023-05-14T15:28:00.227Z,14.57
2023-05-14T15:31:02.692Z,14.57
2023-05-14T15:34:05.104Z,14.62
2023-05-14T15:37:07.501Z,14.50
2023-05-14T15:40:13.428Z,14.59
2023-05-14T15:43:15.794Z,14.60
2023-05-14T15:46:18.087Z,14.53
2023-05-14T15:49:20.533Z,14.66
2023-05-14T15:52:22.966Z,14.59
2023-05-14T15:55:25.413Z,14.68
2023-05-14T15:58:27.697Z,14.75
2023-05-14T16:01:29.991Z,14.74
2023-05-14T16:04:32.296Z,14.78
2023-05-14T16:07:34.647Z,14.72
2023-05-14T16:10:36.977Z,14.87
2023-05-14T16:13:41.610Z,14.89
2023-05-14T16:16:44.030Z,14.90
2023-05-14T16:19:46.388Z,14.94
2023-05-14T16:22:48.720Z,14.97
2023-05-14T16:25:51.008Z,15.00
2023-05-14T16:28:53.322Z,15.02
2023-05-14T16:31:55.697Z,14.98
2023-05-14T16:34:58.341Z,15.06
2023-05-14T16:38:00.713Z,15.06
2023-05-14T16:41:03.179Z,15.10
2023-05-14T16:44:05.513Z,15.20
2023-05-14T16:47:07.862Z,15.11
2023-05-14T16:50:10.447Z,15.13
2023-05-14T16:53:12.734Z,15.16
2023-05-14T16:56:15.044Z,15.16
2023-05-14T16:59:17.429Z,15.06
2023-05-14T17:02:19.740Z,15.21
2023-05-14T17:05:22.214Z,15.32
2023-05-14T17:08:24.640Z,15.20
2023-05-14T17:11:26.928Z,15.34
2023-05-14T17:14:29.342Z,15.18
2023-05-14T17:17:32.679Z,15.11
2023-05-14T17:20:35.084Z,15.15
2023-05-14T17:23:37.736Z,15.23
2023-05-14T17:26:40.101Z,15.21
2023-05-14T17:29:42.830Z,15.37
2023-05-14T17:32:45.268Z,15.31
2023-05-14T17:35:48.166Z,15.29
2023-05-14T17:38:50.594Z,15.28
2023-05-14T17:41:52.945Z,15.22
2023-05-14T17:44:55.253Z,15.21
2023-05-14T17:47:57.623Z,15.13
2023-05-14T17:51:00.040Z,15.13
2023-05-14T17:54:02.330Z,15.23
2023-05-14T17:57:04.777Z,15.16
2023-05-14T18:00:09.552Z,15.19
2023-05-14T18:03:15.176Z,15.13
2023-05-14T18:06:17.566Z,15.09
2023-05-14T18:09:19.894Z,15.07
2023-05-14T18:12:22.270Z,15.01
2023-05-14T18:15:25.854Z,15.12
2023-05-14T18:18:28.377Z,15.04
2023-05-14T18:21:30.918Z,15.02
2023-05-14T18:24:33.244Z,15.12
2023-05-14T18:27:37.510Z,15.06
2023-05-14T18:30:39.843Z,15.00
2023-05-14T18:33:42.163Z,15.01
2023-05-14T18:36:44.544Z,15.04
2023-05-14T18:39:46.863Z,14.94
2023-05-14T18:42:49.210Z,14.92
2023-05-14T18:45:51.577Z,14.92
2023-05-14T18:48:53.901Z,14.91
2023-05-14T18:51:56.203Z,14.87
2023-05-14T18:54:58.493Z,14.83
2023-05-14T18:58:01.335Z,14.90
2023-05-14T19:01:03.714Z,14.96
2023-05-14T19:04:06.395Z,14.89
2023-05-14T19:07:08.836Z,14.94
2023-05-14T19:10:11.221Z,14.89
2023-05-14T19:13:13.558Z,14.89
2023-05-14T19:16:16.254Z,14.86
2023-05-14T19:19:18.699Z,14.90
2023-05-14T19:22:21.022Z,14.99
2023-05-14T19:25:23.357Z,15.00
2023-05-14T19:28:25.660Z,14.87
2023-05-14T19:31:28.180Z,14.91
2023-05-14T19:34:31.008Z,14.94
2023-05-14T19:37:33.338Z,14.92
2023-05-14T19:40:35.762Z,14.77
2023-05-14T19:43:38.084Z,14.78
2023-05-14T19:46:40.670Z,14.86
2023-05-14T19:49:43.035Z,14.85
2023-05-14T19:52:45.351Z,14.87
2023-05-14T19:55:47.692Z,14.88
2023-05-14T19:58:50.033Z,14.70
2023-05-14T20:01:54.540Z,14.57
2023-05-14T20:04:58.047Z,14.53
2023-05-14T20:08:00.388Z,14.61
2023-05-14T20:11:03.344Z,14.75
2023-05-14T20:14:05.843Z,14.63
2023-05-14T20:17:08.274Z,14.62
2023-05-14T20:20:12.068Z,14.62
2023-05-14T20:23:14.406Z,14.66
2023-05-14T20:26:16.754Z,14.65
2023-05-14T20:29:19.079Z,14.63
2023-05-14T20:32:25.533Z,14.58
2023-05-14T20:35:27.949Z,14.50
2023-05-14T20:38:31.348Z,14.47
2023-05-14T20:41:33.639Z,14.53
2023-05-14T20:44:35.931Z,14.63
2023-05-14T20:47:38.377Z,14.66
2023-05-14T20:50:40.822Z,14.69
2023-05-14T20:53:43.150Z,14.65
2023-05-14T20:56:45.674Z,14.66
2023-05-14T20:59:49.051Z,14.59
2023-05-14T21:02:51.586Z,14.50
2023-05-14T21:05:56.011Z,14.56
2023-05-14T21:08:58.325Z,14.56
2023-05-14T21:12:00.695Z,14.48
2023-05-14T21:15:03.246Z,14.60
2023-05-14T21:18:05.697Z,14.50
2023-05-14T21:21:08.029Z,14.43
2023-05-14T21:24:10.343Z,14.40
2023-05-14T21:27:12.722Z,14.48
2023-05-14T21:30:15.418Z,14.58
2023-05-14T21:33:17.808Z,14.50
2023-05-14T21:36:21.195Z,14.47
2023-05-14T21:39:23.523Z,14.48
2023-05-14T21:42:25.918Z,14.46
2023-05-14T21:45:28.606Z,14.54
2023-05-14T21:48:31.298Z,14.55
2023-05-14T21:51:33.761Z,14.61
2023-05-14T21:54:36.059Z,14.44
2023-05-14T21:57:38.345Z,14.43
2023-05-14T22:00:41.256Z,14.36
2023-05-14T22:03:43.659Z,14.35
2023-05-14T22:06:46.092Z,14.44
2023-05-14T22:09:49.349Z,14.45
2023-05-14T22:12:52.441Z,14.55
2023-05-14T22:16:01.451Z,14.42
2023-05-14T22:19:16.515Z,14.48
2023-05-14T22:22:18.975Z,14.52
2023-05-14T22:25:21.291Z,14.54
2023-05-14T22:28:23.785Z,14.56
2023-05-14T22:31:26.126Z,14.50
2023-05-14T22:34:28.491Z,14.49
2023-05-14T22:37:30.840Z,14.48
2023-05-14T22:40:33.152Z,14.33
2023-05-14T22:43:35.485Z,14.32
2023-05-14T22:46:37.841Z,14.30
2023-05-14T22:49:40.714Z,14.37
2023-05-14T22:52:43.077Z,14.39
2023-05-14T22:55:45.660Z,14.37
2023-05-14T22:58:48.083Z,14.28
2023-05-14T23:01:50.509Z,14.45
2023-05-14T23:04:52.981Z,14.52
2023-05-14T23:07:55.567Z,14.42
2023-05-14T23:10:57.871Z,14.44
2023-05-14T23:14:00.841Z,14.55
2023-05-14T23:17:03.257Z,14.48
2023-05-14T23:20:06.122Z,14.55
2023-05-14T23:23:08.476Z,14.46
2023-05-14T23:26:10.852Z,14.44
2023-05-14T23:29:13.171Z,14.40
2023-05-14T23:32:15.552Z,14.31
2023-05-14T23:35:17.938Z,14.30
2023-05-14T23:38:20.280Z,14.43
2023-05-14T23:41:22.640Z,14.51
2023-05-14T23:44:25.029Z,14.52
2023-05-14T23:47:27.413Z,14.51
2023-05-14T23:50:29.752Z,14.43
2023-05-14T23:53:32.122Z,14.43
2023-05-14T23:56:34.480Z,14.34
2023-05-14T23:59:36.920Z,14.46
